sensor_id;sensor_type;location;lat;lon;timestamp;temperature;humidity
21387;DHT22;10854;45.922;6.716;2024-03-29T00:01:46;7.50;77.40
21387;DHT22;10854;45.922;6.716;2024-03-29T00:04:14;7.60;77.10
21387;DHT22;10854;45.922;6.716;2024-03-29T00:06:41;7.60;76.60
21387;DHT22;10854;45.922;6.716;2024-03-29T00:09:08;7.70;76.50
21387;DHT22;10854;45.922;6.716;2024-03-29T00:11:37;7.70;76.10
21387;DHT22;10854;45.922;6.716;2024-03-29T00:14:05;7.80;75.40
21387;DHT22;10854;45.922;6.716;2024-03-29T00:16:32;7.90;75.00
21387;DHT22;10854;45.922;6.716;2024-03-29T00:19:00;7.90;74.50
21387;DHT22;10854;45.922;6.716;2024-03-29T00:21:27;8.00;73.80
21387;DHT22;10854;45.922;6.716;2024-03-29T00:23:54;8.10;73.50
21387;DHT22;10854;45.922;6.716;2024-03-29T00:26:22;8.10;73.80
21387;DHT22;10854;45.922;6.716;2024-03-29T00:28:49;8.00;74.80
21387;DHT22;10854;45.922;6.716;2024-03-29T00:31:16;8.00;74.50
21387;DHT22;10854;45.922;6.716;2024-03-29T00:33:44;8.00;73.40
21387;DHT22;10854;45.922;6.716;2024-03-29T00:36:12;8.10;72.50
21387;DHT22;10854;45.922;6.716;2024-03-29T00:38:41;8.30;71.80
21387;DHT22;10854;45.922;6.716;2024-03-29T00:41:08;8.40;70.90
21387;DHT22;10854;45.922;6.716;2024-03-29T00:43:35;8.50;70.70
21387;DHT22;10854;45.922;6.716;2024-03-29T00:46:03;8.60;70.60
21387;DHT22;10854;45.922;6.716;2024-03-29T00:48:30;8.60;70.20
21387;DHT22;10854;45.922;6.716;2024-03-29T00:50:57;8.60;69.50
21387;DHT22;10854;45.922;6.716;2024-03-29T00:53:26;8.70;69.40
21387;DHT22;10854;45.922;6.716;2024-03-29T00:55:53;8.80;69.10
21387;DHT22;10854;45.922;6.716;2024-03-29T00:58:20;8.70;68.50
21387;DHT22;10854;45.922;6.716;2024-03-29T01:00:47;8.70;68.40
21387;DHT22;10854;45.922;6.716;2024-03-29T01:03:15;8.70;68.30
21387;DHT22;10854;45.922;6.716;2024-03-29T01:05:42;8.80;68.00
21387;DHT22;10854;45.922;6.716;2024-03-29T01:08:09;8.80;67.60
21387;DHT22;10854;45.922;6.716;2024-03-29T01:10:37;8.80;67.20
21387;DHT22;10854;45.922;6.716;2024-03-29T01:13:04;8.90;66.70
21387;DHT22;10854;45.922;6.716;2024-03-29T01:15:32;8.80;66.40
21387;DHT22;10854;45.922;6.716;2024-03-29T01:17:59;8.90;66.50
21387;DHT22;10854;45.922;6.716;2024-03-29T01:20:26;8.90;66.50
21387;DHT22;10854;45.922;6.716;2024-03-29T01:22:53;8.90;66.70
21387;DHT22;10854;45.922;6.716;2024-03-29T01:25:21;8.80;67.10
21387;DHT22;10854;45.922;6.716;2024-03-29T01:27:51;8.70;66.50
21387;DHT22;10854;45.922;6.716;2024-03-29T01:30:18;8.70;66.50
21387;DHT22;10854;45.922;6.716;2024-03-29T01:32:46;8.70;66.40
21387;DHT22;10854;45.922;6.716;2024-03-29T01:35:13;8.70;67.00
21387;DHT22;10854;45.922;6.716;2024-03-29T01:37:41;8.60;67.20
21387;DHT22;10854;45.922;6.716;2024-03-29T01:40:08;8.70;66.30
21387;DHT22;10854;45.922;6.716;2024-03-29T01:42:37;8.70;66.40
21387;DHT22;10854;45.922;6.716;2024-03-29T01:45:05;8.80;66.00
21387;DHT22;10854;45.922;6.716;2024-03-29T01:47:33;8.70;67.50
21387;DHT22;10854;45.922;6.716;2024-03-29T01:50:03;8.60;68.70
21387;DHT22;10854;45.922;6.716;2024-03-29T01:52:32;8.60;68.30
21387;DHT22;10854;45.922;6.716;2024-03-29T01:55:00;8.50;67.50
21387;DHT22;10854;45.922;6.716;2024-03-29T01:57:27;8.60;67.10
21387;DHT22;10854;45.922;6.716;2024-03-29T01:59:56;8.70;67.50
21387;DHT22;10854;45.922;6.716;2024-03-29T02:02:25;8.60;67.70
21387;DHT22;10854;45.922;6.716;2024-03-29T02:04:53;8.70;67.20
21387;DHT22;10854;45.922;6.716;2024-03-29T02:07:20;8.80;66.50
21387;DHT22;10854;45.922;6.716;2024-03-29T02:09:47;8.80;66.40
21387;DHT22;10854;45.922;6.716;2024-03-29T02:12:14;8.90;66.00
21387;DHT22;10854;45.922;6.716;2024-03-29T02:14:42;8.90;65.50
21387;DHT22;10854;45.922;6.716;2024-03-29T02:17:10;9.00;64.90
21387;DHT22;10854;45.922;6.716;2024-03-29T02:19:37;9.10;64.70
21387;DHT22;10854;45.922;6.716;2024-03-29T02:22:05;9.10;64.70
21387;DHT22;10854;45.922;6.716;2024-03-29T02:24:34;9.10;66.00
21387;DHT22;10854;45.922;6.716;2024-03-29T02:27:02;9.00;66.60
21387;DHT22;10854;45.922;6.716;2024-03-29T02:29:30;9.00;65.60
21387;DHT22;10854;45.922;6.716;2024-03-29T02:31:58;9.10;64.50
21387;DHT22;10854;45.922;6.716;2024-03-29T02:34:25;9.20;64.80
21387;DHT22;10854;45.922;6.716;2024-03-29T02:36:53;9.20;65.70
21387;DHT22;10854;45.922;6.716;2024-03-29T02:39:21;9.10;67.40
21387;DHT22;10854;45.922;6.716;2024-03-29T02:41:48;9.00;69.60
21387;DHT22;10854;45.922;6.716;2024-03-29T02:44:15;8.80;69.60
21387;DHT22;10854;45.922;6.716;2024-03-29T02:46:42;8.90;67.60
21387;DHT22;10854;45.922;6.716;2024-03-29T02:49:10;8.90;68.10
21387;DHT22;10854;45.922;6.716;2024-03-29T02:51:37;8.90;69.50
21387;DHT22;10854;45.922;6.716;2024-03-29T02:54:04;8.80;69.90
21387;DHT22;10854;45.922;6.716;2024-03-29T02:56:33;8.80;70.60
21387;DHT22;10854;45.922;6.716;2024-03-29T02:59:00;8.70;70.50
21387;DHT22;10854;45.922;6.716;2024-03-29T03:01:28;8.80;67.50
21387;DHT22;10854;45.922;6.716;2024-03-29T03:03:55;9.00;65.40
21387;DHT22;10854;45.922;6.716;2024-03-29T03:06:22;9.10;66.20
21387;DHT22;10854;45.922;6.716;2024-03-29T03:08:49;9.20;66.10
21387;DHT22;10854;45.922;6.716;2024-03-29T03:11:36;9.30;63.80
21387;DHT22;10854;45.922;6.716;2024-03-29T03:14:03;9.50;62.10
21387;DHT22;10854;45.922;6.716;2024-03-29T03:16:31;9.70;61.50
21387;DHT22;10854;45.922;6.716;2024-03-29T03:18:59;9.80;62.70
21387;DHT22;10854;45.922;6.716;2024-03-29T03:21:28;9.80;62.90
21387;DHT22;10854;45.922;6.716;2024-03-29T03:23:55;9.80;61.40
21387;DHT22;10854;45.922;6.716;2024-03-29T03:26:23;9.90;60.60
21387;DHT22;10854;45.922;6.716;2024-03-29T03:28:50;10.00;59.10
21387;DHT22;10854;45.922;6.716;2024-03-29T03:31:18;10.10;59.00
21387;DHT22;10854;45.922;6.716;2024-03-29T03:33:45;10.10;58.80
21387;DHT22;10854;45.922;6.716;2024-03-29T03:36:13;10.10;58.70
21387;DHT22;10854;45.922;6.716;2024-03-29T03:38:40;10.10;59.10
21387;DHT22;10854;45.922;6.716;2024-03-29T03:41:08;10.10;59.70
21387;DHT22;10854;45.922;6.716;2024-03-29T03:43:35;10.10;60.40
21387;DHT22;10854;45.922;6.716;2024-03-29T03:46:03;10.00;60.60
21387;DHT22;10854;45.922;6.716;2024-03-29T03:48:31;10.00;61.40
21387;DHT22;10854;45.922;6.716;2024-03-29T03:51:02;9.90;62.90
21387;DHT22;10854;45.922;6.716;2024-03-29T03:53:29;10.00;58.90
21387;DHT22;10854;45.922;6.716;2024-03-29T03:55:57;10.10;57.80
21387;DHT22;10854;45.922;6.716;2024-03-29T03:58:24;10.30;56.40
21387;DHT22;10854;45.922;6.716;2024-03-29T04:00:51;10.50;55.70
21387;DHT22;10854;45.922;6.716;2024-03-29T04:03:19;10.70;55.70
21387;DHT22;10854;45.922;6.716;2024-03-29T04:05:46;10.80;55.40
21387;DHT22;10854;45.922;6.716;2024-03-29T04:08:14;10.90;54.80
21387;DHT22;10854;45.922;6.716;2024-03-29T04:10:46;11.00;54.40
21387;DHT22;10854;45.922;6.716;2024-03-29T04:13:13;11.00;53.90
21387;DHT22;10854;45.922;6.716;2024-03-29T04:15:43;11.10;53.70
21387;DHT22;10854;45.922;6.716;2024-03-29T04:18:10;11.20;53.80
21387;DHT22;10854;45.922;6.716;2024-03-29T04:20:38;11.20;53.80
21387;DHT22;10854;45.922;6.716;2024-03-29T04:23:06;11.30;53.50
21387;DHT22;10854;45.922;6.716;2024-03-29T04:25:33;11.30;53.30
21387;DHT22;10854;45.922;6.716;2024-03-29T04:28:00;11.40;53.00
21387;DHT22;10854;45.922;6.716;2024-03-29T04:30:28;11.40;52.60
21387;DHT22;10854;45.922;6.716;2024-03-29T04:32:55;11.50;52.50
21387;DHT22;10854;45.922;6.716;2024-03-29T04:35:22;11.60;52.50
21387;DHT22;10854;45.922;6.716;2024-03-29T04:37:49;11.60;52.50
21387;DHT22;10854;45.922;6.716;2024-03-29T04:40:17;11.60;52.70
21387;DHT22;10854;45.922;6.716;2024-03-29T04:42:45;11.60;52.30
21387;DHT22;10854;45.922;6.716;2024-03-29T04:45:13;11.60;53.00
21387;DHT22;10854;45.922;6.716;2024-03-29T04:47:41;11.50;53.00
21387;DHT22;10854;45.922;6.716;2024-03-29T04:50:09;11.40;54.80
21387;DHT22;10854;45.922;6.716;2024-03-29T04:52:36;11.30;56.40
21387;DHT22;10854;45.922;6.716;2024-03-29T04:55:04;11.20;56.30
21387;DHT22;10854;45.922;6.716;2024-03-29T04:57:31;11.10;54.40
21387;DHT22;10854;45.922;6.716;2024-03-29T04:59:58;11.10;53.50
21387;DHT22;10854;45.922;6.716;2024-03-29T05:02:26;11.30;52.70
21387;DHT22;10854;45.922;6.716;2024-03-29T05:04:53;11.40;52.70
21387;DHT22;10854;45.922;6.716;2024-03-29T05:07:22;11.40;52.80
21387;DHT22;10854;45.922;6.716;2024-03-29T05:09:50;11.40;52.30
21387;DHT22;10854;45.922;6.716;2024-03-29T05:12:17;11.50;51.90
21387;DHT22;10854;45.922;6.716;2024-03-29T05:14:44;11.50;51.50
21387;DHT22;10854;45.922;6.716;2024-03-29T05:17:11;11.60;52.00
21387;DHT22;10854;45.922;6.716;2024-03-29T05:19:40;11.50;53.20
21387;DHT22;10854;45.922;6.716;2024-03-29T05:22:08;11.40;54.40
21387;DHT22;10854;45.922;6.716;2024-03-29T05:24:38;11.40;53.10
21387;DHT22;10854;45.922;6.716;2024-03-29T05:27:07;11.40;52.70
21387;DHT22;10854;45.922;6.716;2024-03-29T05:29:35;11.50;52.30
21387;DHT22;10854;45.922;6.716;2024-03-29T05:32:03;11.50;52.40
21387;DHT22;10854;45.922;6.716;2024-03-29T05:34:31;11.50;52.30
21387;DHT22;10854;45.922;6.716;2024-03-29T05:36:58;11.60;52.20
21387;DHT22;10854;45.922;6.716;2024-03-29T05:39:25;11.60;52.30
21387;DHT22;10854;45.922;6.716;2024-03-29T05:41:53;11.70;52.50
21387;DHT22;10854;45.922;6.716;2024-03-29T05:44:20;11.70;52.50
21387;DHT22;10854;45.922;6.716;2024-03-29T05:46:49;11.70;51.80
21387;DHT22;10854;45.922;6.716;2024-03-29T05:49:19;11.80;51.70
21387;DHT22;10854;45.922;6.716;2024-03-29T05:51:50;11.80;51.70
21387;DHT22;10854;45.922;6.716;2024-03-29T05:54:20;11.80;52.00
21387;DHT22;10854;45.922;6.716;2024-03-29T05:56:49;11.90;52.30
21387;DHT22;10854;45.922;6.716;2024-03-29T05:59:16;11.80;52.10
21387;DHT22;10854;45.922;6.716;2024-03-29T06:01:44;11.90;51.80
21387;DHT22;10854;45.922;6.716;2024-03-29T06:04:11;12.00;51.70
21387;DHT22;10854;45.922;6.716;2024-03-29T06:06:47;12.00;52.90
21387;DHT22;10854;45.922;6.716;2024-03-29T06:09:15;11.90;53.50
21387;DHT22;10854;45.922;6.716;2024-03-29T06:11:44;11.90;53.80
21387;DHT22;10854;45.922;6.716;2024-03-29T06:14:11;12.00;53.30
21387;DHT22;10854;45.922;6.716;2024-03-29T06:16:57;12.00;52.90
21387;DHT22;10854;45.922;6.716;2024-03-29T06:19:44;12.10;53.00
21387;DHT22;10854;45.922;6.716;2024-03-29T06:22:16;12.20;52.90
21387;DHT22;10854;45.922;6.716;2024-03-29T06:24:45;12.20;52.40
21387;DHT22;10854;45.922;6.716;2024-03-29T06:27:15;12.30;52.50
21387;DHT22;10854;45.922;6.716;2024-03-29T06:29:45;12.30;52.70
21387;DHT22;10854;45.922;6.716;2024-03-29T06:32:12;12.30;53.40
21387;DHT22;10854;45.922;6.716;2024-03-29T06:34:40;12.30;53.20
21387;DHT22;10854;45.922;6.716;2024-03-29T06:37:10;12.30;52.90
21387;DHT22;10854;45.922;6.716;2024-03-29T06:39:38;12.40;52.50
21387;DHT22;10854;45.922;6.716;2024-03-29T06:42:06;12.50;52.30
21387;DHT22;10854;45.922;6.716;2024-03-29T06:44:36;12.50;52.40
21387;DHT22;10854;45.922;6.716;2024-03-29T06:47:04;12.60;52.40
21387;DHT22;10854;45.922;6.716;2024-03-29T06:49:31;12.70;52.40
21387;DHT22;10854;45.922;6.716;2024-03-29T06:52:03;12.80;52.20
21387;DHT22;10854;45.922;6.716;2024-03-29T06:54:32;12.80;52.10
21387;DHT22;10854;45.922;6.716;2024-03-29T06:57:01;12.80;52.10
21387;DHT22;10854;45.922;6.716;2024-03-29T06:59:29;12.90;52.20
21387;DHT22;10854;45.922;6.716;2024-03-29T07:01:56;13.00;52.30
21387;DHT22;10854;45.922;6.716;2024-03-29T07:04:24;13.00;53.20
21387;DHT22;10854;45.922;6.716;2024-03-29T07:06:52;12.90;52.60
21387;DHT22;10854;45.922;6.716;2024-03-29T07:09:22;13.00;52.20
21387;DHT22;10854;45.922;6.716;2024-03-29T07:11:55;13.10;52.10
21387;DHT22;10854;45.922;6.716;2024-03-29T07:14:25;13.20;51.90
21387;DHT22;10854;45.922;6.716;2024-03-29T07:16:57;13.30;51.50
21387;DHT22;10854;45.922;6.716;2024-03-29T07:19:28;13.40;53.00
21387;DHT22;10854;45.922;6.716;2024-03-29T07:21:55;13.30;52.30
21387;DHT22;10854;45.922;6.716;2024-03-29T07:24:23;13.30;51.70
21387;DHT22;10854;45.922;6.716;2024-03-29T07:26:51;13.40;51.80
21387;DHT22;10854;45.922;6.716;2024-03-29T07:29:19;13.50;52.20
21387;DHT22;10854;45.922;6.716;2024-03-29T07:31:48;13.50;52.70
21387;DHT22;10854;45.922;6.716;2024-03-29T07:34:15;13.50;52.30
21387;DHT22;10854;45.922;6.716;2024-03-29T07:36:44;13.60;51.60
21387;DHT22;10854;45.922;6.716;2024-03-29T07:39:11;13.70;51.40
21387;DHT22;10854;45.922;6.716;2024-03-29T07:41:38;13.70;51.20
21387;DHT22;10854;45.922;6.716;2024-03-29T07:44:05;13.70;51.10
21387;DHT22;10854;45.922;6.716;2024-03-29T07:46:37;13.80;50.90
21387;DHT22;10854;45.922;6.716;2024-03-29T07:49:07;13.90;51.30
21387;DHT22;10854;45.922;6.716;2024-03-29T07:51:34;13.90;51.30
21387;DHT22;10854;45.922;6.716;2024-03-29T07:54:01;13.90;51.40
21387;DHT22;10854;45.922;6.716;2024-03-29T07:56:37;13.90;51.60
21387;DHT22;10854;45.922;6.716;2024-03-29T07:59:04;13.90;51.40
21387;DHT22;10854;45.922;6.716;2024-03-29T08:01:31;14.00;51.70
21387;DHT22;10854;45.922;6.716;2024-03-29T08:03:58;14.10;51.90
21387;DHT22;10854;45.922;6.716;2024-03-29T08:06:25;14.10;51.80
21387;DHT22;10854;45.922;6.716;2024-03-29T08:08:53;14.20;51.40
21387;DHT22;10854;45.922;6.716;2024-03-29T08:11:21;14.30;51.30
21387;DHT22;10854;45.922;6.716;2024-03-29T08:13:48;14.30;51.20
21387;DHT22;10854;45.922;6.716;2024-03-29T08:16:15;14.40;51.50
21387;DHT22;10854;45.922;6.716;2024-03-29T08:18:46;14.50;51.40
21387;DHT22;10854;45.922;6.716;2024-03-29T08:21:17;14.60;51.50
21387;DHT22;10854;45.922;6.716;2024-03-29T08:23:45;14.70;51.90
21387;DHT22;10854;45.922;6.716;2024-03-29T08:26:13;14.70;51.60
21387;DHT22;10854;45.922;6.716;2024-03-29T08:28:40;14.80;51.30
21387;DHT22;10854;45.922;6.716;2024-03-29T08:31:07;14.90;50.80
21387;DHT22;10854;45.922;6.716;2024-03-29T08:33:37;15.00;51.00
21387;DHT22;10854;45.922;6.716;2024-03-29T08:36:05;15.10;51.50
21387;DHT22;10854;45.922;6.716;2024-03-29T08:38:33;15.20;50.70
21387;DHT22;10854;45.922;6.716;2024-03-29T08:41:00;15.30;50.70
21387;DHT22;10854;45.922;6.716;2024-03-29T08:43:28;15.30;50.60
21387;DHT22;10854;45.922;6.716;2024-03-29T08:45:55;15.40;50.90
21387;DHT22;10854;45.922;6.716;2024-03-29T08:48:23;15.50;50.80
21387;DHT22;10854;45.922;6.716;2024-03-29T08:50:51;15.50;49.80
21387;DHT22;10854;45.922;6.716;2024-03-29T08:53:19;15.60;49.80
21387;DHT22;10854;45.922;6.716;2024-03-29T08:55:46;15.60;49.80
21387;DHT22;10854;45.922;6.716;2024-03-29T08:58:15;15.80;49.90
21387;DHT22;10854;45.922;6.716;2024-03-29T09:00:42;15.90;49.70
21387;DHT22;10854;45.922;6.716;2024-03-29T09:03:09;15.90;50.00
21387;DHT22;10854;45.922;6.716;2024-03-29T09:05:37;16.00;50.10
21387;DHT22;10854;45.922;6.716;2024-03-29T09:08:06;16.10;49.60
21387;DHT22;10854;45.922;6.716;2024-03-29T09:10:33;16.10;49.20
21387;DHT22;10854;45.922;6.716;2024-03-29T09:13:00;16.10;48.90
21387;DHT22;10854;45.922;6.716;2024-03-29T09:15:28;16.00;48.70
21387;DHT22;10854;45.922;6.716;2024-03-29T09:17:55;16.00;49.10
21387;DHT22;10854;45.922;6.716;2024-03-29T09:20:23;16.00;49.40
21387;DHT22;10854;45.922;6.716;2024-03-29T09:22:51;16.00;49.30
21387;DHT22;10854;45.922;6.716;2024-03-29T09:25:19;16.10;49.20
21387;DHT22;10854;45.922;6.716;2024-03-29T09:27:46;16.10;49.10
21387;DHT22;10854;45.922;6.716;2024-03-29T09:30:16;16.20;49.70
21387;DHT22;10854;45.922;6.716;2024-03-29T09:32:46;16.30;50.10
21387;DHT22;10854;45.922;6.716;2024-03-29T09:35:14;16.40;49.40
21387;DHT22;10854;45.922;6.716;2024-03-29T09:37:42;16.50;49.00
21387;DHT22;10854;45.922;6.716;2024-03-29T09:40:12;16.60;48.80
21387;DHT22;10854;45.922;6.716;2024-03-29T09:42:43;16.70;49.20
21387;DHT22;10854;45.922;6.716;2024-03-29T09:45:11;16.90;49.80
21387;DHT22;10854;45.922;6.716;2024-03-29T09:47:39;17.00;48.90
21387;DHT22;10854;45.922;6.716;2024-03-29T09:50:08;17.20;48.50
21387;DHT22;10854;45.922;6.716;2024-03-29T09:52:36;17.30;48.20
21387;DHT22;10854;45.922;6.716;2024-03-29T09:55:04;17.30;48.50
21387;DHT22;10854;45.922;6.716;2024-03-29T09:57:35;17.50;48.10
21387;DHT22;10854;45.922;6.716;2024-03-29T10:00:03;17.60;47.90
21387;DHT22;10854;45.922;6.716;2024-03-29T10:02:31;17.70;47.60
21387;DHT22;10854;45.922;6.716;2024-03-29T10:05:01;17.80;47.30
21387;DHT22;10854;45.922;6.716;2024-03-29T10:07:33;17.80;47.40
21387;DHT22;10854;45.922;6.716;2024-03-29T10:10:05;17.90;47.30
21387;DHT22;10854;45.922;6.716;2024-03-29T10:12:34;18.00;47.30
21387;DHT22;10854;45.922;6.716;2024-03-29T10:15:03;18.20;47.30
21387;DHT22;10854;45.922;6.716;2024-03-29T10:17:47;18.30;47.20
21387;DHT22;10854;45.922;6.716;2024-03-29T10:20:18;18.40;46.90
21387;DHT22;10854;45.922;6.716;2024-03-29T10:22:46;18.60;46.70
21387;DHT22;10854;45.922;6.716;2024-03-29T10:25:14;18.70;46.40
21387;DHT22;10854;45.922;6.716;2024-03-29T10:27:42;18.90;46.30
21387;DHT22;10854;45.922;6.716;2024-03-29T10:30:10;19.00;45.80
21387;DHT22;10854;45.922;6.716;2024-03-29T10:32:39;19.10;46.50
21387;DHT22;10854;45.922;6.716;2024-03-29T10:35:07;19.10;47.40
21387;DHT22;10854;45.922;6.716;2024-03-29T10:37:36;19.30;47.20
21387;DHT22;10854;45.922;6.716;2024-03-29T10:40:10;19.40;46.90
21387;DHT22;10854;45.922;6.716;2024-03-29T10:42:38;19.80;46.70
21387;DHT22;10854;45.922;6.716;2024-03-29T10:45:08;20.00;44.70
21387;DHT22;10854;45.922;6.716;2024-03-29T10:47:36;20.00;44.90
21387;DHT22;10854;45.922;6.716;2024-03-29T10:50:03;20.20;45.70
21387;DHT22;10854;45.922;6.716;2024-03-29T10:52:32;20.20;44.90
21387;DHT22;10854;45.922;6.716;2024-03-29T10:55:02;20.30;44.50
21387;DHT22;10854;45.922;6.716;2024-03-29T10:57:31;20.10;44.60
21387;DHT22;10854;45.922;6.716;2024-03-29T11:00:12;20.10;44.50
21387;DHT22;10854;45.922;6.716;2024-03-29T11:05:33;19.90;44.50
21387;DHT22;10854;45.922;6.716;2024-03-29T11:08:06;19.90;44.80
21387;DHT22;10854;45.922;6.716;2024-03-29T11:10:40;20.00;45.40
21387;DHT22;10854;45.922;6.716;2024-03-29T11:15:54;20.20;44.50
21387;DHT22;10854;45.922;6.716;2024-03-29T11:18:23;20.30;44.30
21387;DHT22;10854;45.922;6.716;2024-03-29T11:20:51;20.30;44.30
21387;DHT22;10854;45.922;6.716;2024-03-29T11:23:20;20.40;44.50
21387;DHT22;10854;45.922;6.716;2024-03-29T11:25:53;20.60;44.10
21387;DHT22;10854;45.922;6.716;2024-03-29T11:28:30;20.70;44.40
21387;DHT22;10854;45.922;6.716;2024-03-29T11:33:44;21.00;45.50
21387;DHT22;10854;45.922;6.716;2024-03-29T11:36:13;21.20;45.40
21387;DHT22;10854;45.922;6.716;2024-03-29T11:38:41;21.40;44.30
21387;DHT22;10854;45.922;6.716;2024-03-29T11:41:14;21.60;44.10
21387;DHT22;10854;45.922;6.716;2024-03-29T11:43:42;21.60;42.60
21387;DHT22;10854;45.922;6.716;2024-03-29T11:46:11;21.60;42.50
21387;DHT22;10854;45.922;6.716;2024-03-29T11:48:39;21.70;42.20
21387;DHT22;10854;45.922;6.716;2024-03-29T11:51:08;21.70;42.20
21387;DHT22;10854;45.922;6.716;2024-03-29T11:53:37;21.70;42.30
21387;DHT22;10854;45.922;6.716;2024-03-29T11:56:04;21.80;42.20
21387;DHT22;10854;45.922;6.716;2024-03-29T11:58:32;21.90;42.50
21387;DHT22;10854;45.922;6.716;2024-03-29T12:01:00;22.00;42.60
21387;DHT22;10854;45.922;6.716;2024-03-29T12:03:32;22.10;42.50
21387;DHT22;10854;45.922;6.716;2024-03-29T12:06:00;22.10;42.00
21387;DHT22;10854;45.922;6.716;2024-03-29T12:08:35;22.10;41.60
21387;DHT22;10854;45.922;6.716;2024-03-29T12:11:03;22.10;41.90
21387;DHT22;10854;45.922;6.716;2024-03-29T12:13:31;22.00;41.50
21387;DHT22;10854;45.922;6.716;2024-03-29T12:15:59;21.90;41.70
21387;DHT22;10854;45.922;6.716;2024-03-29T12:18:27;21.90;41.80
21387;DHT22;10854;45.922;6.716;2024-03-29T12:20:55;21.90;41.80
21387;DHT22;10854;45.922;6.716;2024-03-29T12:23:22;21.90;41.80
21387;DHT22;10854;45.922;6.716;2024-03-29T12:25:52;21.90;41.80
21387;DHT22;10854;45.922;6.716;2024-03-29T12:28:21;22.00;41.80
21387;DHT22;10854;45.922;6.716;2024-03-29T12:30:49;22.10;42.00
21387;DHT22;10854;45.922;6.716;2024-03-29T12:33:18;22.20;41.80
21387;DHT22;10854;45.922;6.716;2024-03-29T12:35:52;22.40;41.70
21387;DHT22;10854;45.922;6.716;2024-03-29T12:38:22;22.60;41.80
21387;DHT22;10854;45.922;6.716;2024-03-29T12:40:50;22.80;41.50
21387;DHT22;10854;45.922;6.716;2024-03-29T12:43:22;23.20;41.50
21387;DHT22;10854;45.922;6.716;2024-03-29T12:45:51;23.50;41.00
21387;DHT22;10854;45.922;6.716;2024-03-29T12:48:20;23.80;41.30
21387;DHT22;10854;45.922;6.716;2024-03-29T12:50:48;24.20;41.10
21387;DHT22;10854;45.922;6.716;2024-03-29T12:53:16;24.60;41.30
21387;DHT22;10854;45.922;6.716;2024-03-29T12:55:45;24.90;40.50
21387;DHT22;10854;45.922;6.716;2024-03-29T12:58:14;25.20;40.00
21387;DHT22;10854;45.922;6.716;2024-03-29T13:00:43;25.50;38.30
21387;DHT22;10854;45.922;6.716;2024-03-29T13:03:10;25.70;36.50
21387;DHT22;10854;45.922;6.716;2024-03-29T13:05:38;25.70;36.50
21387;DHT22;10854;45.922;6.716;2024-03-29T13:08:11;25.60;35.80
21387;DHT22;10854;45.922;6.716;2024-03-29T13:10:39;25.50;36.40
21387;DHT22;10854;45.922;6.716;2024-03-29T13:13:07;25.40;36.90
21387;DHT22;10854;45.922;6.716;2024-03-29T13:15:36;25.40;37.50
21387;DHT22;10854;45.922;6.716;2024-03-29T13:18:04;25.50;37.00
21387;DHT22;10854;45.922;6.716;2024-03-29T13:20:35;25.40;36.40
21387;DHT22;10854;45.922;6.716;2024-03-29T13:23:07;25.40;35.80
21387;DHT22;10854;45.922;6.716;2024-03-29T13:25:35;25.40;36.30
21387;DHT22;10854;45.922;6.716;2024-03-29T13:28:02;25.40;36.80
21387;DHT22;10854;45.922;6.716;2024-03-29T13:30:29;25.50;37.10
21387;DHT22;10854;45.922;6.716;2024-03-29T13:32:56;25.60;36.70
21387;DHT22;10854;45.922;6.716;2024-03-29T13:35:24;25.50;36.40
21387;DHT22;10854;45.922;6.716;2024-03-29T13:37:53;25.60;36.10
21387;DHT22;10854;45.922;6.716;2024-03-29T13:40:23;25.60;35.20
21387;DHT22;10854;45.922;6.716;2024-03-29T13:42:54;25.50;35.60
21387;DHT22;10854;45.922;6.716;2024-03-29T13:45:22;25.40;36.30
21387;DHT22;10854;45.922;6.716;2024-03-29T13:47:51;25.50;36.30
21387;DHT22;10854;45.922;6.716;2024-03-29T13:50:18;25.50;35.80
21387;DHT22;10854;45.922;6.716;2024-03-29T13:52:47;25.50;36.40
21387;DHT22;10854;45.922;6.716;2024-03-29T13:55:15;25.40;37.00
21387;DHT22;10854;45.922;6.716;2024-03-29T13:57:44;25.20;36.80
21387;DHT22;10854;45.922;6.716;2024-03-29T14:00:12;25.10;35.00
21387;DHT22;10854;45.922;6.716;2024-03-29T14:02:41;24.90;35.20
21387;DHT22;10854;45.922;6.716;2024-03-29T14:05:08;24.60;35.80
21387;DHT22;10854;45.922;6.716;2024-03-29T14:07:37;24.50;37.00
21387;DHT22;10854;45.922;6.716;2024-03-29T14:10:05;24.40;37.30
21387;DHT22;10854;45.922;6.716;2024-03-29T14:12:36;24.40;37.40
21387;DHT22;10854;45.922;6.716;2024-03-29T14:15:03;24.30;35.50
21387;DHT22;10854;45.922;6.716;2024-03-29T14:17:36;24.30;34.60
21387;DHT22;10854;45.922;6.716;2024-03-29T14:20:03;24.20;32.70
21387;DHT22;10854;45.922;6.716;2024-03-29T14:22:31;24.00;31.30
21387;DHT22;10854;45.922;6.716;2024-03-29T14:25:02;23.90;31.30
21387;DHT22;10854;45.922;6.716;2024-03-29T14:27:31;23.80;31.30
21387;DHT22;10854;45.922;6.716;2024-03-29T14:29:58;23.70;30.90
21387;DHT22;10854;45.922;6.716;2024-03-29T14:32:25;23.60;30.30
21387;DHT22;10854;45.922;6.716;2024-03-29T14:34:53;23.50;30.90
21387;DHT22;10854;45.922;6.716;2024-03-29T14:37:20;23.60;31.10
21387;DHT22;10854;45.922;6.716;2024-03-29T14:39:47;23.60;30.80
21387;DHT22;10854;45.922;6.716;2024-03-29T14:42:15;23.70;30.50
21387;DHT22;10854;45.922;6.716;2024-03-29T14:44:44;23.70;30.60
21387;DHT22;10854;45.922;6.716;2024-03-29T14:47:11;23.70;30.10
21387;DHT22;10854;45.922;6.716;2024-03-29T14:49:38;23.80;30.20
21387;DHT22;10854;45.922;6.716;2024-03-29T14:52:06;23.70;29.70
21387;DHT22;10854;45.922;6.716;2024-03-29T14:54:34;23.70;29.70
21387;DHT22;10854;45.922;6.716;2024-03-29T14:57:01;23.60;30.10
21387;DHT22;10854;45.922;6.716;2024-03-29T14:59:28;23.50;30.20
21387;DHT22;10854;45.922;6.716;2024-03-29T15:01:57;23.40;29.90
21387;DHT22;10854;45.922;6.716;2024-03-29T15:04:24;23.30;29.90
21387;DHT22;10854;45.922;6.716;2024-03-29T15:06:51;23.20;29.90
21387;DHT22;10854;45.922;6.716;2024-03-29T15:09:19;23.20;30.20
21387;DHT22;10854;45.922;6.716;2024-03-29T15:11:46;23.10;30.40
21387;DHT22;10854;45.922;6.716;2024-03-29T15:14:13;23.00;30.10
21387;DHT22;10854;45.922;6.716;2024-03-29T15:16:41;22.90;29.60
21387;DHT22;10854;45.922;6.716;2024-03-29T15:19:08;22.80;29.10
21387;DHT22;10854;45.922;6.716;2024-03-29T15:21:35;22.80;29.30
21387;DHT22;10854;45.922;6.716;2024-03-29T15:24:05;22.80;29.30
21387;DHT22;10854;45.922;6.716;2024-03-29T15:26:32;22.70;29.60
21387;DHT22;10854;45.922;6.716;2024-03-29T15:29:01;22.70;30.00
21387;DHT22;10854;45.922;6.716;2024-03-29T15:31:42;22.60;29.90
21387;DHT22;10854;45.922;6.716;2024-03-29T15:34:15;22.50;30.50
21387;DHT22;10854;45.922;6.716;2024-03-29T15:36:42;22.50;31.30
21387;DHT22;10854;45.922;6.716;2024-03-29T15:39:10;22.40;31.50
21387;DHT22;10854;45.922;6.716;2024-03-29T15:41:41;22.40;30.20
21387;DHT22;10854;45.922;6.716;2024-03-29T15:44:11;22.40;30.30
21387;DHT22;10854;45.922;6.716;2024-03-29T15:46:39;22.40;30.00
21387;DHT22;10854;45.922;6.716;2024-03-29T15:49:07;22.40;30.50
21387;DHT22;10854;45.922;6.716;2024-03-29T15:51:35;22.40;30.70